sensor_id;sensor_type;location;lat;lon;timestamp;P1;durP1;ratioP1;P2;durP2;ratioP2
63492;SDS011;49638;47.526;10.028;2023-07-13T00:01:03;8.07;;;4.68;;
63492;SDS011;49638;47.526;10.028;2023-07-13T00:04:03;4.43;;;3.88;;
63492;SDS011;49638;47.526;10.028;2023-07-13T00:07:03;4.82;;;3.55;;
63492;SDS011;49638;47.526;10.028;2023-07-13T00:10:04;6.22;;;4.30;;
63492;SDS011;49638;47.526;10.028;2023-07-13T00:13:05;5.75;;;4.30;;
63492;SDS011;49638;47.526;10.028;2023-07-13T00:16:05;5.25;;;3.97;;
63492;SDS011;49638;47.526;10.028;2023-07-13T00:19:06;6.13;;;4.13;;
63492;SDS011;49638;47.526;10.028;2023-07-13T00:22:06;4.53;;;3.47;;
63492;SDS011;49638;47.526;10.028;2023-07-13T00:25:06;4.00;;;3.47;;
63492;SDS011;49638;47.526;10.028;2023-07-13T00:28:10;4.53;;;3.47;;
63492;SDS011;49638;47.526;10.028;2023-07-13T00:31:11;4.32;;;3.65;;
63492;SDS011;49638;47.526;10.028;2023-07-13T00:34:12;6.60;;;3.63;;
63492;SDS011;49638;47.526;10.028;2023-07-13T00:37:12;4.00;;;3.00;;
63492;SDS011;49638;47.526;10.028;2023-07-13T00:40:13;5.50;;;3.28;;
63492;SDS011;49638;47.526;10.028;2023-07-13T00:43:22;5.80;;;3.10;;
63492;SDS011;49638;47.526;10.028;2023-07-13T00:49:26;5.47;;;3.60;;
63492;SDS011;49638;47.526;10.028;2023-07-13T00:52:28;4.93;;;3.60;;
63492;SDS011;49638;47.526;10.028;2023-07-13T00:55:29;7.72;;;3.70;;
63492;SDS011;49638;47.526;10.028;2023-07-13T00:58:29;5.93;;;3.63;;
63492;SDS011;49638;47.526;10.028;2023-07-13T01:01:30;4.55;;;3.50;;
63492;SDS011;49638;47.526;10.028;2023-07-13T01:04:30;6.00;;;3.75;;
63492;SDS011;49638;47.526;10.028;2023-07-13T01:07:30;4.28;;;3.38;;
63492;SDS011;49638;47.526;10.028;2023-07-13T01:10:31;5.18;;;3.75;;
63492;SDS011;49638;47.526;10.028;2023-07-13T01:13:38;5.80;;;3.58;;
63492;SDS011;49638;47.526;10.028;2023-07-13T01:16:39;5.40;;;3.63;;
63492;SDS011;49638;47.526;10.028;2023-07-13T01:19:42;6.35;;;3.78;;
63492;SDS011;49638;47.526;10.028;2023-07-13T01:22:43;4.97;;;3.50;;
63492;SDS011;49638;47.526;10.028;2023-07-13T01:25:44;7.85;;;3.97;;
63492;SDS011;49638;47.526;10.028;2023-07-13T01:28:44;5.28;;;3.50;;
63492;SDS011;49638;47.526;10.028;2023-07-13T01:31:44;5.57;;;3.47;;
63492;SDS011;49638;47.526;10.028;2023-07-13T01:34:45;4.68;;;3.65;;
63492;SDS011;49638;47.526;10.028;2023-07-13T01:37:46;5.90;;;3.63;;
63492;SDS011;49638;47.526;10.028;2023-07-13T01:40:47;6.13;;;3.40;;
63492;SDS011;49638;47.526;10.028;2023-07-13T01:43:47;4.75;;;3.67;;
63492;SDS011;49638;47.526;10.028;2023-07-13T01:46:47;5.53;;;3.67;;
63492;SDS011;49638;47.526;10.028;2023-07-13T01:49:48;4.28;;;3.60;;
63492;SDS011;49638;47.526;10.028;2023-07-13T01:52:48;3.70;;;2.97;;
63492;SDS011;49638;47.526;10.028;2023-07-13T01:55:48;3.97;;;3.00;;
63492;SDS011;49638;47.526;10.028;2023-07-13T01:58:49;6.85;;;3.08;;
63492;SDS011;49638;47.526;10.028;2023-07-13T02:01:49;5.78;;;3.25;;
63492;SDS011;49638;47.526;10.028;2023-07-13T02:04:49;6.80;;;3.28;;
63492;SDS011;49638;47.526;10.028;2023-07-13T02:07:49;4.45;;;3.35;;
63492;SDS011;49638;47.526;10.028;2023-07-13T02:10:50;9.50;;;3.60;;
63492;SDS011;49638;47.526;10.028;2023-07-13T02:13:50;5.28;;;3.53;;
63492;SDS011;49638;47.526;10.028;2023-07-13T02:16:51;9.43;;;3.42;;
63492;SDS011;49638;47.526;10.028;2023-07-13T02:19:52;6.80;;;3.28;;
63492;SDS011;49638;47.526;10.028;2023-07-13T02:22:52;6.88;;;4.38;;
63492;SDS011;49638;47.526;10.028;2023-07-13T02:25:56;6.22;;;4.45;;
63492;SDS011;49638;47.526;10.028;2023-07-13T02:28:57;7.20;;;4.13;;
63492;SDS011;49638;47.526;10.028;2023-07-13T02:31:57;5.70;;;4.63;;
63492;SDS011;49638;47.526;10.028;2023-07-13T02:34:58;6.28;;;3.83;;
63492;SDS011;49638;47.526;10.028;2023-07-13T02:37:58;6.55;;;3.72;;
63492;SDS011;49638;47.526;10.028;2023-07-13T02:40:58;4.28;;;3.65;;
63492;SDS011;49638;47.526;10.028;2023-07-13T02:43:59;6.18;;;3.80;;
63492;SDS011;49638;47.526;10.028;2023-07-13T02:47:03;5.00;;;3.60;;
63492;SDS011;49638;47.526;10.028;2023-07-13T02:50:04;5.38;;;3.55;;
63492;SDS011;49638;47.526;10.028;2023-07-13T02:53:04;6.70;;;3.58;;
63492;SDS011;49638;47.526;10.028;2023-07-13T02:56:05;6.35;;;3.50;;
63492;SDS011;49638;47.526;10.028;2023-07-13T02:59:05;7.35;;;3.92;;
63492;SDS011;49638;47.526;10.028;2023-07-13T03:02:06;4.43;;;3.55;;
63492;SDS011;49638;47.526;10.028;2023-07-13T03:05:06;4.80;;;3.15;;
63492;SDS011;49638;47.526;10.028;2023-07-13T03:08:08;6.70;;;3.78;;
63492;SDS011;49638;47.526;10.028;2023-07-13T03:11:10;6.00;;;3.20;;
63492;SDS011;49638;47.526;10.028;2023-07-13T03:14:13;3.85;;;3.13;;
63492;SDS011;49638;47.526;10.028;2023-07-13T03:17:14;6.47;;;3.70;;
63492;SDS011;49638;47.526;10.028;2023-07-13T03:20:14;6.10;;;3.63;;
63492;SDS011;49638;47.526;10.028;2023-07-13T03:23:14;4.90;;;3.60;;
63492;SDS011;49638;47.526;10.028;2023-07-13T03:26:16;5.30;;;3.35;;
63492;SDS011;49638;47.526;10.028;2023-07-13T03:29:18;5.15;;;3.75;;
63492;SDS011;49638;47.526;10.028;2023-07-13T03:32:18;5.25;;;3.50;;
63492;SDS011;49638;47.526;10.028;2023-07-13T03:35:19;4.88;;;3.60;;
63492;SDS011;49638;47.526;10.028;2023-07-13T03:38:19;4.68;;;3.55;;
63492;SDS011;49638;47.526;10.028;2023-07-13T03:41:20;7.07;;;3.35;;
63492;SDS011;49638;47.526;10.028;2023-07-13T03:44:20;6.38;;;3.25;;
63492;SDS011;49638;47.526;10.028;2023-07-13T03:47:20;4.47;;;3.05;;
63492;SDS011;49638;47.526;10.028;2023-07-13T03:50:21;5.13;;;3.95;;
63492;SDS011;49638;47.526;10.028;2023-07-13T03:53:21;3.97;;;3.30;;
63492;SDS011;49638;47.526;10.028;2023-07-13T03:56:21;5.13;;;3.70;;
63492;SDS011;49638;47.526;10.028;2023-07-13T03:59:22;4.93;;;3.63;;
63492;SDS011;49638;47.526;10.028;2023-07-13T04:02:22;5.05;;;4.00;;
63492;SDS011;49638;47.526;10.028;2023-07-13T04:05:23;6.57;;;4.32;;
63492;SDS011;49638;47.526;10.028;2023-07-13T04:08:23;5.57;;;4.43;;
63492;SDS011;49638;47.526;10.028;2023-07-13T04:11:24;6.45;;;4.57;;
63492;SDS011;49638;47.526;10.028;2023-07-13T04:14:27;6.57;;;4.75;;
63492;SDS011;49638;47.526;10.028;2023-07-13T04:17:27;8.43;;;4.90;;
63492;SDS011;49638;47.526;10.028;2023-07-13T04:20:27;9.45;;;4.40;;
63492;SDS011;49638;47.526;10.028;2023-07-13T04:23:28;8.05;;;4.72;;
63492;SDS011;49638;47.526;10.028;2023-07-13T04:26:28;5.18;;;4.28;;
63492;SDS011;49638;47.526;10.028;2023-07-13T04:29:29;5.68;;;4.57;;
63492;SDS011;49638;47.526;10.028;2023-07-13T04:32:30;5.65;;;4.45;;
63492;SDS011;49638;47.526;10.028;2023-07-13T04:35:30;5.82;;;4.15;;
63492;SDS011;49638;47.526;10.028;2023-07-13T04:38:32;6.68;;;4.20;;
63492;SDS011;49638;47.526;10.028;2023-07-13T04:41:33;5.93;;;4.20;;
63492;SDS011;49638;47.526;10.028;2023-07-13T04:44:33;10.02;;;4.80;;
63492;SDS011;49638;47.526;10.028;2023-07-13T04:47:33;5.10;;;3.92;;
63492;SDS011;49638;47.526;10.028;2023-07-13T04:50:35;6.05;;;4.80;;
63492;SDS011;49638;47.526;10.028;2023-07-13T04:53:37;5.30;;;4.28;;
63492;SDS011;49638;47.526;10.028;2023-07-13T04:56:37;7.00;;;4.43;;
63492;SDS011;49638;47.526;10.028;2023-07-13T04:59:38;10.50;;;4.60;;
63492;SDS011;49638;47.526;10.028;2023-07-13T05:02:38;7.82;;;4.18;;
63492;SDS011;49638;47.526;10.028;2023-07-13T05:05:39;5.47;;;4.28;;
63492;SDS011;49638;47.526;10.028;2023-07-13T05:08:39;5.93;;;3.90;;
63492;SDS011;49638;47.526;10.028;2023-07-13T05:11:39;6.95;;;4.30;;
63492;SDS011;49638;47.526;10.028;2023-07-13T05:14:40;6.90;;;4.32;;
63492;SDS011;49638;47.526;10.028;2023-07-13T05:17:40;5.53;;;4.15;;
63492;SDS011;49638;47.526;10.028;2023-07-13T05:20:40;8.07;;;4.30;;
63492;SDS011;49638;47.526;10.028;2023-07-13T05:23:41;6.47;;;4.32;;
63492;SDS011;49638;47.526;10.028;2023-07-13T05:26:44;4.78;;;4.13;;
63492;SDS011;49638;47.526;10.028;2023-07-13T05:29:44;6.30;;;4.43;;
63492;SDS011;49638;47.526;10.028;2023-07-13T05:32:44;5.65;;;3.97;;
63492;SDS011;49638;47.526;10.028;2023-07-13T05:35:46;9.20;;;4.40;;
63492;SDS011;49638;47.526;10.028;2023-07-13T05:38:46;5.63;;;4.30;;
63492;SDS011;49638;47.526;10.028;2023-07-13T05:41:46;6.72;;;4.70;;
63492;SDS011;49638;47.526;10.028;2023-07-13T05:44:47;6.20;;;4.70;;
63492;SDS011;49638;47.526;10.028;2023-07-13T05:47:47;6.90;;;4.22;;
63492;SDS011;49638;47.526;10.028;2023-07-13T05:50:47;6.72;;;4.60;;
63492;SDS011;49638;47.526;10.028;2023-07-13T05:53:48;7.60;;;4.63;;
63492;SDS011;49638;47.526;10.028;2023-07-13T05:56:48;9.25;;;5.75;;
63492;SDS011;49638;47.526;10.028;2023-07-13T05:59:48;6.38;;;5.22;;
63492;SDS011;49638;47.526;10.028;2023-07-13T06:02:49;7.03;;;5.05;;
63492;SDS011;49638;47.526;10.028;2023-07-13T06:05:49;8.68;;;4.78;;
63492;SDS011;49638;47.526;10.028;2023-07-13T06:08:49;10.95;;;4.72;;
63492;SDS011;49638;47.526;10.028;2023-07-13T06:11:49;6.40;;;4.32;;
63492;SDS011;49638;47.526;10.028;2023-07-13T06:14:50;6.45;;;4.32;;
63492;SDS011;49638;47.526;10.028;2023-07-13T06:17:50;4.68;;;3.80;;
63492;SDS011;49638;47.526;10.028;2023-07-13T06:20:50;4.88;;;3.47;;
63492;SDS011;49638;47.526;10.028;2023-07-13T06:23:51;7.55;;;3.95;;
63492;SDS011;49638;47.526;10.028;2023-07-13T06:26:51;5.30;;;3.83;;
63492;SDS011;49638;47.526;10.028;2023-07-13T06:29:51;6.00;;;4.00;;
63492;SDS011;49638;47.526;10.028;2023-07-13T06:32:52;5.80;;;3.72;;
63492;SDS011;49638;47.526;10.028;2023-07-13T06:35:53;4.03;;;3.42;;
63492;SDS011;49638;47.526;10.028;2023-07-13T06:38:54;5.72;;;3.60;;
63492;SDS011;49638;47.526;10.028;2023-07-13T06:41:55;5.47;;;4.22;;
63492;SDS011;49638;47.526;10.028;2023-07-13T06:44:55;5.97;;;4.03;;
63492;SDS011;49638;47.526;10.028;2023-07-13T06:47:55;8.68;;;4.30;;
63492;SDS011;49638;47.526;10.028;2023-07-13T06:50:55;7.95;;;4.18;;
63492;SDS011;49638;47.526;10.028;2023-07-13T06:53:56;5.40;;;4.15;;
63492;SDS011;49638;47.526;10.028;2023-07-13T06:56:56;5.43;;;3.80;;
63492;SDS011;49638;47.526;10.028;2023-07-13T06:59:56;5.03;;;3.80;;
63492;SDS011;49638;47.526;10.028;2023-07-13T07:02:57;5.03;;;3.60;;
63492;SDS011;49638;47.526;10.028;2023-07-13T07:06:15;8.40;;;4.05;;
63492;SDS011;49638;47.526;10.028;2023-07-13T07:09:17;5.40;;;3.92;;
63492;SDS011;49638;47.526;10.028;2023-07-13T07:12:18;5.95;;;3.95;;
63492;SDS011;49638;47.526;10.028;2023-07-13T07:15:18;6.82;;;4.10;;
63492;SDS011;49638;47.526;10.028;2023-07-13T07:18:18;6.18;;;3.90;;
63492;SDS011;49638;47.526;10.028;2023-07-13T07:21:19;7.55;;;4.75;;
63492;SDS011;49638;47.526;10.028;2023-07-13T07:24:19;11.45;;;4.55;;
63492;SDS011;49638;47.526;10.028;2023-07-13T07:27:20;8.43;;;4.18;;
63492;SDS011;49638;47.526;10.028;2023-07-13T07:30:20;4.97;;;3.63;;
63492;SDS011;49638;47.526;10.028;2023-07-13T07:33:20;6.57;;;3.60;;
63492;SDS011;49638;47.526;10.028;2023-07-13T07:36:21;4.97;;;3.88;;
63492;SDS011;49638;47.526;10.028;2023-07-13T07:39:21;4.82;;;3.35;;
63492;SDS011;49638;47.526;10.028;2023-07-13T07:42:21;6.35;;;3.55;;
63492;SDS011;49638;47.526;10.028;2023-07-13T07:45:22;5.15;;;3.80;;
63492;SDS011;49638;47.526;10.028;2023-07-13T07:48:22;4.25;;;3.15;;
63492;SDS011;49638;47.526;10.028;2023-07-13T07:51:22;4.25;;;3.10;;
63492;SDS011;49638;47.526;10.028;2023-07-13T07:54:23;4.43;;;3.28;;
63492;SDS011;49638;47.526;10.028;2023-07-13T07:57:23;4.13;;;3.10;;
63492;SDS011;49638;47.526;10.028;2023-07-13T08:00:23;3.53;;;2.58;;
63492;SDS011;49638;47.526;10.028;2023-07-13T08:03:24;3.78;;;3.15;;
63492;SDS011;49638;47.526;10.028;2023-07-13T08:06:24;3.58;;;2.83;;
63492;SDS011;49638;47.526;10.028;2023-07-13T08:09:25;4.60;;;3.05;;
63492;SDS011;49638;47.526;10.028;2023-07-13T08:12:25;4.43;;;3.05;;
63492;SDS011;49638;47.526;10.028;2023-07-13T08:15:27;3.33;;;2.45;;
63492;SDS011;49638;47.526;10.028;2023-07-13T08:18:27;2.97;;;2.60;;
63492;SDS011;49638;47.526;10.028;2023-07-13T08:21:30;5.17;;;2.70;;
63492;SDS011;49638;47.526;10.028;2023-07-13T08:24:30;4.40;;;2.85;;
63492;SDS011;49638;47.526;10.028;2023-07-13T08:27:31;4.10;;;2.80;;
63492;SDS011;49638;47.526;10.028;2023-07-13T08:30:31;4.10;;;2.63;;
63492;SDS011;49638;47.526;10.028;2023-07-13T08:33:32;3.50;;;2.60;;
63492;SDS011;49638;47.526;10.028;2023-07-13T08:36:32;3.08;;;2.50;;
63492;SDS011;49638;47.526;10.028;2023-07-13T08:39:33;4.65;;;2.72;;
63492;SDS011;49638;47.526;10.028;2023-07-13T08:42:37;3.15;;;2.85;;
63492;SDS011;49638;47.526;10.028;2023-07-13T08:45:43;4.10;;;2.97;;
63492;SDS011;49638;47.526;10.028;2023-07-13T08:48:49;4.93;;;3.10;;
63492;SDS011;49638;47.526;10.028;2023-07-13T08:51:54;4.32;;;2.65;;
63492;SDS011;49638;47.526;10.028;2023-07-13T08:54:57;3.50;;;2.72;;
63492;SDS011;49638;47.526;10.028;2023-07-13T08:58:11;4.60;;;2.65;;
63492;SDS011;49638;47.526;10.028;2023-07-13T09:01:22;4.63;;;2.50;;
63492;SDS011;49638;47.526;10.028;2023-07-13T09:04:35;2.20;;;2.00;;
63492;SDS011;49638;47.526;10.028;2023-07-13T09:07:58;2.65;;;2.00;;
63492;SDS011;49638;47.526;10.028;2023-07-13T09:11:07;2.78;;;2.50;;
63492;SDS011;49638;47.526;10.028;2023-07-13T09:14:26;2.45;;;2.10;;
63492;SDS011;49638;47.526;10.028;2023-07-13T09:17:32;2.67;;;2.07;;
63492;SDS011;49638;47.526;10.028;2023-07-13T09:20:37;3.90;;;2.20;;
63492;SDS011;49638;47.526;10.028;2023-07-13T09:23:42;3.80;;;2.33;;
63492;SDS011;49638;47.526;10.028;2023-07-13T09:26:43;2.03;;;1.88;;
63492;SDS011;49638;47.526;10.028;2023-07-13T09:29:45;3.30;;;2.58;;
63492;SDS011;49638;47.526;10.028;2023-07-13T09:32:51;2.92;;;2.45;;
63492;SDS011;49638;47.526;10.028;2023-07-13T09:35:53;3.00;;;2.45;;
63492;SDS011;49638;47.526;10.028;2023-07-13T09:42:15;3.05;;;2.35;;
63492;SDS011;49638;47.526;10.028;2023-07-13T09:45:26;3.53;;;2.60;;
63492;SDS011;49638;47.526;10.028;2023-07-13T09:48:33;5.28;;;3.13;;
63492;SDS011;49638;47.526;10.028;2023-07-13T09:51:36;4.85;;;3.50;;
63492;SDS011;49638;47.526;10.028;2023-07-13T09:54:37;4.53;;;2.53;;
63492;SDS011;49638;47.526;10.028;2023-07-13T09:57:38;3.50;;;3.20;;
63492;SDS011;49638;47.526;10.028;2023-07-13T10:00:54;6.82;;;3.70;;
63492;SDS011;49638;47.526;10.028;2023-07-13T10:03:55;5.13;;;3.65;;
63492;SDS011;49638;47.526;10.028;2023-07-13T10:07:09;4.75;;;3.53;;
63492;SDS011;49638;47.526;10.028;2023-07-13T10:10:20;4.82;;;3.03;;
63492;SDS011;49638;47.526;10.028;2023-07-13T10:13:30;59.78;;;7.38;;
63492;SDS011;49638;47.526;10.028;2023-07-13T10:16:35;6.47;;;3.80;;
63492;SDS011;49638;47.526;10.028;2023-07-13T10:19:35;6.68;;;3.92;;
63492;SDS011;49638;47.526;10.028;2023-07-13T10:22:54;6.40;;;3.38;;
63492;SDS011;49638;47.526;10.028;2023-07-13T10:26:00;6.43;;;3.40;;
63492;SDS011;49638;47.526;10.028;2023-07-13T10:29:05;6.97;;;3.55;;
63492;SDS011;49638;47.526;10.028;2023-07-13T10:32:09;5.60;;;3.60;;
63492;SDS011;49638;47.526;10.028;2023-07-13T10:35:12;5.28;;;3.88;;
63492;SDS011;49638;47.526;10.028;2023-07-13T10:38:18;4.65;;;3.67;;
63492;SDS011;49638;47.526;10.028;2023-07-13T10:41:23;4.65;;;4.00;;
63492;SDS011;49638;47.526;10.028;2023-07-13T10:44:28;6.00;;;3.50;;
63492;SDS011;49638;47.526;10.028;2023-07-13T10:47:31;5.85;;;3.90;;
63492;SDS011;49638;47.526;10.028;2023-07-13T10:50:31;4.55;;;3.70;;
63492;SDS011;49638;47.526;10.028;2023-07-13T10:53:35;5.93;;;4.20;;
63492;SDS011;49638;47.526;10.028;2023-07-13T10:56:39;6.60;;;4.32;;
63492;SDS011;49638;47.526;10.028;2023-07-13T10:59:40;6.60;;;3.90;;
63492;SDS011;49638;47.526;10.028;2023-07-13T11:02:41;5.78;;;3.65;;
63492;SDS011;49638;47.526;10.028;2023-07-13T11:05:41;5.47;;;3.63;;
63492;SDS011;49638;47.526;10.028;2023-07-13T11:11:48;4.72;;;3.50;;
63492;SDS011;49638;47.526;10.028;2023-07-13T11:17:55;7.00;;;3.63;;
63492;SDS011;49638;47.526;10.028;2023-07-13T11:21:16;4.40;;;3.50;;
63492;SDS011;49638;47.526;10.028;2023-07-13T11:24:28;4.78;;;3.15;;
63492;SDS011;49638;47.526;10.028;2023-07-13T11:27:51;6.72;;;3.90;;
63492;SDS011;49638;47.526;10.028;2023-07-13T11:33:53;3.23;;;2.93;;
63492;SDS011;49638;47.526;10.028;2023-07-13T11:36:56;3.90;;;3.15;;
63492;SDS011;49638;47.526;10.028;2023-07-13T11:39:58;4.65;;;3.10;;
63492;SDS011;49638;47.526;10.028;2023-07-13T11:43:02;4.28;;;3.10;;
63492;SDS011;49638;47.526;10.028;2023-07-13T11:46:43;5.05;;;2.83;;
63492;SDS011;49638;47.526;10.028;2023-07-13T11:49:40;4.25;;;2.88;;
63492;SDS011;49638;47.526;10.028;2023-07-13T11:52:42;4.30;;;2.63;;
63492;SDS011;49638;47.526;10.028;2023-07-13T11:55:43;8.10;;;2.67;;
63492;SDS011;49638;47.526;10.028;2023-07-13T11:58:50;5.93;;;2.65;;
63492;SDS011;49638;47.526;10.028;2023-07-13T12:01:53;3.30;;;2.75;;
63492;SDS011;49638;47.526;10.028;2023-07-13T12:04:55;5.18;;;2.83;;
63492;SDS011;49638;47.526;10.028;2023-07-13T12:07:55;4.13;;;3.00;;
63492;SDS011;49638;47.526;10.028;2023-07-13T12:10:59;4.93;;;3.03;;
63492;SDS011;49638;47.526;10.028;2023-07-13T12:14:04;5.28;;;2.90;;
63492;SDS011;49638;47.526;10.028;2023-07-13T12:17:08;3.22;;;2.42;;
63492;SDS011;49638;47.526;10.028;2023-07-13T12:23:35;4.05;;;2.35;;
63492;SDS011;49638;47.526;10.028;2023-07-13T12:26:36;4.75;;;2.67;;
63492;SDS011;49638;47.526;10.028;2023-07-13T12:29:36;2.80;;;1.95;;
63492;SDS011;49638;47.526;10.028;2023-07-13T12:32:37;2.05;;;1.80;;
63492;SDS011;49638;47.526;10.028;2023-07-13T12:35:42;3.95;;;2.38;;
63492;SDS011;49638;47.526;10.028;2023-07-13T12:38:46;2.97;;;2.28;;
63492;SDS011;49638;47.526;10.028;2023-07-13T12:41:47;3.67;;;2.13;;
63492;SDS011;49638;47.526;10.028;2023-07-13T12:44:49;3.58;;;2.42;;
63492;SDS011;49638;47.526;10.028;2023-07-13T12:47:53;3.15;;;2.30;;
63492;SDS011;49638;47.526;10.028;2023-07-13T12:51:00;2.63;;;2.40;;
63492;SDS011;49638;47.526;10.028;2023-07-13T12:54:17;3.17;;;2.45;;
63492;SDS011;49638;47.526;10.028;2023-07-13T12:57:19;3.95;;;2.60;;
63492;SDS011;49638;47.526;10.028;2023-07-13T13:06:34;4.30;;;2.40;;
63492;SDS011;49638;47.526;10.028;2023-07-13T13:09:36;2.47;;;2.28;;
63492;SDS011;49638;47.526;10.028;2023-07-13T13:12:36;4.22;;;2.42;;
63492;SDS011;49638;47.526;10.028;2023-07-13T13:15:36;2.83;;;1.90;;
63492;SDS011;49638;47.526;10.028;2023-07-13T13:18:37;2.70;;;2.40;;
63492;SDS011;49638;47.526;10.028;2023-07-13T13:21:37;3.28;;;2.35;;
63492;SDS011;49638;47.526;10.028;2023-07-13T13:24:37;3.15;;;2.60;;
63492;SDS011;49638;47.526;10.028;2023-07-13T13:27:39;3.10;;;2.50;;
63492;SDS011;49638;47.526;10.028;2023-07-13T13:30:41;3.63;;;2.57;;
63492;SDS011;49638;47.526;10.028;2023-07-13T13:33:42;3.72;;;2.33;;
63492;SDS011;49638;47.526;10.028;2023-07-13T13:36:46;4.30;;;2.30;;
63492;SDS011;49638;47.526;10.028;2023-07-13T13:39:47;2.03;;;1.80;;
63492;SDS011;49638;47.526;10.028;2023-07-13T13:42:49;4.13;;;2.00;;
63492;SDS011;49638;47.526;10.028;2023-07-13T13:45:51;2.95;;;2.10;;
63492;SDS011;49638;47.526;10.028;2023-07-13T13:48:52;3.03;;;2.35;;
63492;SDS011;49638;47.526;10.028;2023-07-13T13:51:53;5.05;;;3.00;;
63492;SDS011;49638;47.526;10.028;2023-07-13T13:54:54;2.70;;;2.50;;
63492;SDS011;49638;47.526;10.028;2023-07-13T13:57:57;2.63;;;1.92;;
63492;SDS011;49638;47.526;10.028;2023-07-13T14:00:57;2.65;;;2.45;;
63492;SDS011;49638;47.526;10.028;2023-07-13T14:03:58;2.95;;;2.05;;
63492;SDS011;49638;47.526;10.028;2023-07-13T14:06:59;2.78;;;2.28;;
63492;SDS011;49638;47.526;10.028;2023-07-13T14:09:59;3.85;;;2.20;;
63492;SDS011;49638;47.526;10.028;2023-07-13T14:13:00;2.58;;;1.98;;
63492;SDS011;49638;47.526;10.028;2023-07-13T14:16:00;2.92;;;1.90;;
63492;SDS011;49638;47.526;10.028;2023-07-13T14:19:01;4.07;;;2.17;;
63492;SDS011;49638;47.526;10.028;2023-07-13T14:22:01;4.13;;;2.08;;
63492;SDS011;49638;47.526;10.028;2023-07-13T14:25:01;3.40;;;1.95;;
63492;SDS011;49638;47.526;10.028;2023-07-13T14:28:15;2.72;;;2.30;;
63492;SDS011;49638;47.526;10.028;2023-07-13T14:31:22;3.30;;;2.30;;
63492;SDS011;49638;47.526;10.028;2023-07-13T14:37:26;2.60;;;2.10;;
63492;SDS011;49638;47.526;10.028;2023-07-13T14:40:28;2.92;;;2.05;;
63492;SDS011;49638;47.526;10.028;2023-07-13T14:46:31;4.07;;;2.30;;
63492;SDS011;49638;47.526;10.028;2023-07-13T14:49:35;4.72;;;2.33;;
63492;SDS011;49638;47.526;10.028;2023-07-13T14:52:37;3.28;;;2.30;;
63492;SDS011;49638;47.526;10.028;2023-07-13T14:55:38;3.92;;;2.28;;
63492;SDS011;49638;47.526;10.028;2023-07-13T14:58:38;2.83;;;2.30;;
63492;SDS011;49638;47.526;10.028;2023-07-13T15:01:41;3.28;;;2.40;;
63492;SDS011;49638;47.526;10.028;2023-07-13T15:04:41;3.95;;;2.60;;
63492;SDS011;49638;47.526;10.028;2023-07-13T15:07:41;2.50;;;2.30;;
63492;SDS011;49638;47.526;10.028;2023-07-13T15:10:42;3.10;;;2.40;;
63492;SDS011;49638;47.526;10.028;2023-07-13T15:13:42;2.67;;;2.40;;
63492;SDS011;49638;47.526;10.028;2023-07-13T15:16:45;3.15;;;2.47;;
63492;SDS011;49638;47.526;10.028;2023-07-13T15:19:48;3.92;;;2.35;;
63492;SDS011;49638;47.526;10.028;2023-07-13T15:22:49;3.45;;;2.35;;
63492;SDS011;49638;47.526;10.028;2023-07-13T15:25:50;2.33;;;2.10;;
63492;SDS011;49638;47.526;10.028;2023-07-13T15:28:51;3.55;;;2.05;;
63492;SDS011;49638;47.526;10.028;2023-07-13T15:31:51;2.80;;;1.70;;
63492;SDS011;49638;47.526;10.028;2023-07-13T15:34:51;2.03;;;1.83;;
63492;SDS011;49638;47.526;10.028;2023-07-13T15:37:53;2.17;;;1.90;;
63492;SDS011;49638;47.526;10.028;2023-07-13T15:40:54;2.60;;;2.00;;
63492;SDS011;49638;47.526;10.028;2023-07-13T15:43:57;6.18;;;2.25;;
63492;SDS011;49638;47.526;10.028;2023-07-13T15:46:58;2.78;;;1.95;;
63492;SDS011;49638;47.526;10.028;2023-07-13T15:50:00;3.08;;;2.00;;
63492;SDS011;49638;47.526;10.028;2023-07-13T15:53:00;3.33;;;2.10;;
63492;SDS011;49638;47.526;10.028;2023-07-13T15:56:04;2.92;;;2.35;;
63492;SDS011;49638;47.526;10.028;2023-07-13T15:59:16;2.10;;;1.77;;
63492;SDS011;49638;47.526;10.028;2023-07-13T16:02:17;2.40;;;1.73;;
63492;SDS011;49638;47.526;10.028;2023-07-13T16:05:20;3.90;;;2.17;;
63492;SDS011;49638;47.526;10.028;2023-07-13T16:08:26;4.95;;;1.95;;
63492;SDS011;49638;47.526;10.028;2023-07-13T16:11:34;2.20;;;1.80;;
63492;SDS011;49638;47.526;10.028;2023-07-13T16:14:36;3.45;;;1.90;;
63492;SDS011;49638;47.526;10.028;2023-07-13T16:17:37;2.22;;;1.85;;
63492;SDS011;49638;47.526;10.028;2023-07-13T16:20:38;3.78;;;1.70;;
63492;SDS011;49638;47.526;10.028;2023-07-13T16:23:39;2.08;;;1.80;;
63492;SDS011;49638;47.526;10.028;2023-07-13T16:26:39;2.83;;;1.83;;
63492;SDS011;49638;47.526;10.028;2023-07-13T16:29:40;2.25;;;1.85;;
63492;SDS011;49638;47.526;10.028;2023-07-13T16:32:40;3.85;;;1.90;;
63492;SDS011;49638;47.526;10.028;2023-07-13T16:35:41;3.50;;;1.85;;
63492;SDS011;49638;47.526;10.028;2023-07-13T16:38:46;3.30;;;2.13;;
63492;SDS011;49638;47.526;10.028;2023-07-13T16:41:46;1.65;;;1.55;;
63492;SDS011;49638;47.526;10.028;2023-07-13T16:44:46;3.00;;;1.88;;
63492;SDS011;49638;47.526;10.028;2023-07-13T16:47:47;3.85;;;1.90;;
63492;SDS011;49638;47.526;10.028;2023-07-13T16:50:52;58.58;;;6.13;;
63492;SDS011;49638;47.526;10.028;2023-07-13T16:53:55;3.47;;;1.77;;
63492;SDS011;49638;47.526;10.028;2023-07-13T16:56:55;2.15;;;1.60;;
63492;SDS011;49638;47.526;10.028;2023-07-13T16:59:55;3.53;;;2.15;;
63492;SDS011;49638;47.526;10.028;2023-07-13T17:02:58;6.65;;;1.90;;
63492;SDS011;49638;47.526;10.028;2023-07-13T17:06:14;2.67;;;1.70;;
63492;SDS011;49638;47.526;10.028;2023-07-13T17:09:24;2.40;;;2.17;;
63492;SDS011;49638;47.526;10.028;2023-07-13T17:12:25;3.78;;;1.90;;
63492;SDS011;49638;47.526;10.028;2023-07-13T17:15:26;2.28;;;1.90;;
63492;SDS011;49638;47.526;10.028;2023-07-13T17:18:29;3.97;;;1.98;;
63492;SDS011;49638;47.526;10.028;2023-07-13T17:21:35;3.42;;;2.03;;
63492;SDS011;49638;47.526;10.028;2023-07-13T17:24:36;2.47;;;1.87;;
63492;SDS011;49638;47.526;10.028;2023-07-13T17:27:36;2.55;;;1.90;;
63492;SDS011;49638;47.526;10.028;2023-07-13T17:30:37;4.47;;;2.03;;
63492;SDS011;49638;47.526;10.028;2023-07-13T17:33:47;4.43;;;2.07;;
63492;SDS011;49638;47.526;10.028;2023-07-13T17:36:47;2.35;;;2.15;;
63492;SDS011;49638;47.526;10.028;2023-07-13T17:39:48;4.05;;;1.85;;
63492;SDS011;49638;47.526;10.028;2023-07-13T17:42:48;2.25;;;2.05;;
63492;SDS011;49638;47.526;10.028;2023-07-13T17:45:54;9.65;;;5.18;;
63492;SDS011;49638;47.526;10.028;2023-07-13T17:48:57;7.90;;;5.25;;
63492;SDS011;49638;47.526;10.028;2023-07-13T17:52:00;2.38;;;2.13;;
63492;SDS011;49638;47.526;10.028;2023-07-13T17:55:23;3.65;;;2.35;;
63492;SDS011;49638;47.526;10.028;2023-07-13T17:58:24;2.45;;;2.00;;
63492;SDS011;49638;47.526;10.028;2023-07-13T18:01:24;3.08;;;2.00;;
63492;SDS011;49638;47.526;10.028;2023-07-13T18:04:29;2.33;;;2.13;;
63492;SDS011;49638;47.526;10.028;2023-07-13T18:07:29;2.28;;;1.92;;
63492;SDS011;49638;47.526;10.028;2023-07-13T18:10:31;2.83;;;2.35;;
63492;SDS011;49638;47.526;10.028;2023-07-13T18:13:32;3.20;;;2.10;;
63492;SDS011;49638;47.526;10.028;2023-07-13T18:16:40;2.40;;;2.17;;
63492;SDS011;49638;47.526;10.028;2023-07-13T18:19:44;3.80;;;2.20;;
63492;SDS011;49638;47.526;10.028;2023-07-13T18:22:47;3.22;;;2.13;;
63492;SDS011;49638;47.526;10.028;2023-07-13T18:25:50;2.40;;;2.20;;
63492;SDS011;49638;47.526;10.028;2023-07-13T18:28:52;3.38;;;2.47;;
63492;SDS011;49638;47.526;10.028;2023-07-13T18:31:53;3.72;;;2.30;;